Time;durP1;ratioP1;P1;durP2;ratioP2;P2;SDS_P1;SDS_P2;PMS_P1;PMS_P2;Temp;Humidity;BMP_temperature;BMP_pressure;BME280_temperature;BME280_humidity;BME280_pressure;Samples;Min_cycle;Max_cycle;Signal;HPM_P1;HPM_P2
2021/06/01 00:01:15;;;;;;;4.05;1.98;;;;;;;11.14;100.00;101948.13;3559797;40;20068;-65
2021/06/01 00:03:41;;;;;;;4.18;2.30;;;;;;;11.14;100.00;101943.56;3559522;40;20320;-65
2021/06/01 00:06:07;;;;;;;3.30;2.17;;;;;;;11.02;100.00;101944.50;3557875;40;20061;-65
2021/06/01 00:08:33;;;;;;;3.20;1.98;;;;;;;10.98;100.00;101945.69;3561561;40;20049;-66
2021/06/01 00:10:59;;;;;;;3.20;1.80;;;;;;;10.94;100.00;101946.88;3559983;40;20284;-67
2021/06/01 00:13:27;;;;;;;4.82;2.10;;;;;;;10.93;100.00;101950.56;3560382;40;20041;-66
2021/06/01 00:15:53;;;;;;;2.45;2.03;;;;;;;10.89;100.00;101946.34;3560047;40;20061;-66
2021/06/01 00:18:19;;;;;;;4.60;1.83;;;;;;;10.84;100.00;101942.16;3558466;40;20133;-67
2021/06/01 00:20:45;;;;;;;6.07;2.30;;;;;;;10.84;100.00;101942.16;3561747;40;20111;-66
2021/06/01 00:23:11;;;;;;;3.40;1.90;;;;;;;10.84;100.00;101938.63;3560969;40;20053;-67
2021/06/01 00:25:37;;;;;;;2.58;1.77;;;;;;;10.82;100.00;101938.72;3557992;40;20049;-66
2021/06/01 00:28:03;;;;;;;3.67;1.83;;;;;;;10.71;100.00;101935.94;3557364;40;20060;-67
2021/06/01 00:30:31;;;;;;;4.82;2.22;;;;;;;10.71;100.00;101930.56;3563303;40;20077;-66
2021/06/01 00:32:57;;;;;;;2.80;1.73;;;;;;;10.65;100.00;101926.47;3558224;40;20053;-66
2021/06/01 00:35:23;;;;;;;3.65;2.00;;;;;;;10.67;100.00;101929.06;3554067;40;20141;-67
2021/06/01 00:37:49;;;;;;;4.50;2.20;;;;;;;10.65;100.00;101931.84;3552573;40;20038;-67
2021/06/01 00:40:15;;;;;;;3.58;1.90;;;;;;;10.67;100.00;101927.25;3556841;40;20087;-66
2021/06/01 00:42:41;;;;;;;4.03;2.17;;;;;;;10.70;100.00;101934.22;3559810;40;20093;-66
2021/06/01 00:45:07;;;;;;;5.75;1.73;;;;;;;10.59;100.00;101931.44;3563408;40;20053;-66
2021/06/01 00:47:35;;;;;;;3.15;1.80;;;;;;;10.62;100.00;101932.06;3553511;40;20041;-65
2021/06/01 00:50:01;;;;;;;2.10;1.65;;;;;;;10.65;100.00;101934.53;3558227;40;20305;-66
2021/06/01 00:52:27;;;;;;;3.05;1.98;;;;;;;10.69;100.00;101937.91;3558737;40;20088;-65
2021/06/01 00:57:20;;;;;;;3.08;2.13;;;;;;;10.65;100.00;101934.53;3570036;22;20045;-66
2021/06/01 00:59:46;;;;;;;2.65;1.90;;;;;;;10.68;100.00;101928.09;3583877;39;20032;-66
2021/06/01 01:02:12;;;;;;;3.70;2.25;;;;;;;10.67;100.00;101929.06;3582907;39;20055;-67
2021/06/01 01:04:43;;;;;;;2.85;2.15;;;;;;;10.70;100.00;101934.22;3584414;39;20105;-67
2021/06/01 01:07:16;;;;;;;3.10;2.20;;;;;;;10.70;100.00;101931.53;3583345;39;20370;-67
2021/06/01 01:09:44;;;;;;;4.60;2.17;;;;;;;10.73;100.00;101925.91;3582807;39;20060;-66
2021/06/01 01:12:16;;;;;;;2.65;2.15;;;;;;;10.88;100.00;101929.34;3581412;39;20043;-66
2021/06/01 01:14:48;;;;;;;4.68;2.13;;;;;;;10.92;100.00;101922.75;3588350;39;20078;-65
2021/06/01 01:17:18;;;;;;;4.43;2.30;;;;;;;10.84;100.00;101926.00;3593005;39;20083;-66
2021/06/01 01:20:02;;;;;;;3.78;2.47;;;;;;;10.82;100.00;101922.56;3591353;39;20043;-67
2021/06/01 01:22:30;;;;;;;5.43;2.15;;;;;;;10.70;100.00;101928.81;3589429;39;20290;-66
2021/06/01 01:25:07;;;;;;;6.10;2.45;;;;;;;10.66;100.00;101922.81;3592135;39;20115;-66
2021/06/01 01:27:46;;;;;;;5.18;2.13;;;;;;;10.73;100.00;101912.44;3590440;39;20077;-66
2021/06/01 01:30:16;;;;;;;4.03;2.17;;;;;;;10.70;100.00;101915.38;3588988;39;21243;-66
2021/06/01 01:32:56;;;;;;;4.80;2.40;;;;;;;10.67;100.00;101919.16;3588031;39;20541;-67
2021/06/01 01:35:25;;;;;;;3.47;2.30;;;;;;;10.71;100.00;101919.78;3589868;39;20083;-66
2021/06/01 01:37:53;;;;;;;6.07;2.92;;;;;;;10.65;100.00;101918.38;3591874;39;20040;-65
2021/06/01 01:40:22;;;;;;;4.80;2.67;;;;;;;10.69;100.00;101919.91;3591581;39;20074;-66
2021/06/01 01:42:52;;;;;;;4.88;2.78;;;;;;;10.83;100.00;101918.88;3590932;39;20039;-65
2021/06/01 01:45:22;;;;;;;5.50;3.00;;;;;;;10.79;100.00;101922.78;3591842;39;20047;-66
2021/06/01 01:50:49;;;;;;;5.27;2.67;;;;;;;10.89;100.00;101908.66;3564338;40;20370;-66
2021/06/01 01:53:17;;;;;;;4.65;2.60;;;;;;;10.90;100.00;101913.06;3580767;39;20044;-66
2021/06/01 01:55:46;;;;;;;5.30;3.05;;;;;;;10.89;100.00;101903.25;3593135;39;20040;-65
2021/06/01 01:58:12;;;;;;;;;;;;;;;10.85;100.00;101906.19;3592648;39;20032;-65
2021/06/01 02:00:38;;;;;;;4.88;2.80;;;;;;;10.93;100.00;101902.91;3589015;39;20237;-65
2021/06/01 02:03:05;;;;;;;3.90;2.78;;;;;;;10.99;100.00;101901.63;3590182;39;20043;-66
2021/06/01 02:05:31;;;;;;;7.72;2.67;;;;;;;10.93;100.00;101896.69;3593510;39;20342;-66
2021/06/01 02:07:59;;;;;;;7.85;2.75;;;;;;;10.96;100.00;101904.53;3593112;39;20063;-66
2021/06/01 02:10:25;;;;;;;5.25;2.38;;;;;;;10.98;100.00;101902.56;3590955;39;20355;-66
2021/06/01 02:12:51;;;;;;;3.50;2.28;;;;;;;10.99;100.00;101894.38;3591508;39;20040;-66
2021/06/01 02:15:17;;;;;;;3.47;2.47;;;;;;;10.97;100.00;101896.34;3592446;39;20047;-66
2021/06/01 02:17:43;;;;;;;5.47;2.60;;;;;;;10.91;100.00;101893.22;3589669;39;20044;-66
2021/06/01 02:20:11;;;;;;;5.63;2.80;;;;;;;10.86;100.00;101891.75;3589681;39;20063;-66
2021/06/01 02:25:37;;;;;;;3.40;2.40;;;;;;;10.67;100.00;101881.47;3590992;39;20123;-65
2021/06/01 02:28:14;;;;;;;3.45;2.40;;;;;;;10.62;100.00;101882.78;3590787;39;20040;-66
2021/06/01 02:30:50;;;;;;;5.30;2.83;;;;;;;10.69;100.00;101889.44;3598112;39;20047;-66
2021/06/01 02:33:19;;;;;;;4.40;2.70;;;;;;;10.72;100.00;101893.72;3593076;39;20080;-66
2021/06/01 02:35:46;;;;;;;3.25;2.35;;;;;;;10.74;100.00;101892.63;3595467;39;20120;-66
2021/06/01 02:38:12;;;;;;;4.00;2.80;;;;;;;10.76;100.00;101890.72;3594950;39;20076;-66
2021/06/01 02:40:44;;;;;;;4.78;2.72;;;;;;;10.76;100.00;101887.13;3588986;39;20443;-67
2021/06/01 02:43:14;;;;;;;5.25;2.50;;;;;;;10.86;100.00;101885.50;3594040;39;21178;-66
2021/06/01 02:45:42;;;;;;;5.43;2.70;;;;;;;10.69;100.00;101892.13;3591691;39;20821;-67
2021/06/01 02:48:10;;;;;;;4.82;2.63;;;;;;;10.62;100.00;101885.47;3593068;39;20211;-67
2021/06/01 02:50:37;;;;;;;4.07;2.70;;;;;;;10.55;100.00;101889.56;3593206;39;20116;-67
2021/06/01 02:53:06;;;;;;;3.05;2.40;;;;;;;10.49;100.00;101893.56;3593006;39;20048;-66
2021/06/01 02:55:32;;;;;;;5.13;2.78;;;;;;;10.47;100.00;101885.59;3595836;39;20418;-66
2021/06/01 03:01:16;;;;;;;3.88;2.40;;;;;;;10.55;100.00;101897.63;3631505;22;20168;-66
2021/06/01 03:03:47;;;;;;;3.15;2.35;;;;;;;10.37;100.00;101892.59;3601015;39;20153;-66
2021/06/01 03:06:13;;;;;;;3.80;2.60;;;;;;;10.33;100.00;101893.75;3602969;39;20039;-66
2021/06/01 03:08:40;;;;;;;6.35;2.40;;;;;;;10.31;100.00;101890.31;3601941;39;20309;-67
2021/06/01 03:11:06;;;;;;;3.38;2.30;;;;;;;10.40;100.00;101894.22;3602170;39;20046;-67
2021/06/01 03:13:32;;;;;;;3.05;2.30;;;;;;;10.31;100.00;101891.16;3603321;39;20092;-67
2021/06/01 03:15:59;;;;;;;7.05;2.70;;;;;;;10.34;100.00;101890.13;3602672;39;20326;-66
2021/06/01 03:18:27;;;;;;;4.47;2.80;;;;;;;10.26;100.00;101881.69;3604649;39;20045;-66
2021/06/01 03:20:53;;;;;;;5.72;2.75;;;;;;;10.33;100.00;101891.97;3603445;39;20123;-67
2021/06/01 03:23:19;;;;;;;4.20;2.55;;;;;;;10.25;100.00;101883.53;3605450;39;20051;-67
2021/06/01 03:25:46;;;;;;;4.18;2.88;;;;;;;10.24;100.00;101883.66;3601685;39;20918;-66
2021/06/01 03:28:13;;;;;;;4.55;2.80;;;;;;;10.27;100.00;101883.44;3600368;39;20450;-67
2021/06/01 03:30:41;;;;;;;5.43;2.85;;;;;;;10.29;100.00;101884.16;3602721;39;20104;-67
2021/06/01 03:33:07;;;;;;;5.15;3.08;;;;;;;10.30;100.00;101880.50;3600074;39;20415;-65
2021/06/01 03:35:35;;;;;;;3.88;2.88;;;;;;;10.30;100.00;101883.22;3599914;39;20054;-66
2021/06/01 03:38:01;;;;;;;4.07;2.88;;;;;;;10.36;100.00;101882.78;3603097;39;21901;-66
2021/06/01 03:40:27;;;;;;;5.40;2.85;;;;;;;10.32;100.00;101882.13;3600543;39;20043;-67
2021/06/01 03:42:53;;;;;;;7.10;3.05;;;;;;;10.29;100.00;101886.84;3604274;39;20362;-66
2021/06/01 03:45:27;;;;;;;3.97;2.75;;;;;;;10.28;100.00;101885.16;3637906;22;20067;-67
2021/06/01 03:47:54;;;;;;;4.40;3.10;;;;;;;10.31;100.00;101893.00;3593043;39;20049;-66
2021/06/01 03:50:20;;;;;;;4.15;3.03;;;;;;;10.24;100.00;101889.03;3591013;39;20064;-67
2021/06/01 03:52:48;;;;;;;4.75;2.75;;;;;;;10.26;100.00;101889.78;3592884;39;20047;-66
2021/06/01 03:55:14;;;;;;;4.95;2.85;;;;;;;10.24;100.00;101891.72;3592246;39;20070;-66
2021/06/01 03:57:41;;;;;;;6.03;3.03;;;;;;;10.28;100.00;101891.38;3591202;39;20047;-66
2021/06/01 04:00:10;;;;;;;5.13;3.78;;;;;;;10.31;100.00;101901.09;3590711;39;20414;-67
2021/06/01 04:02:36;;;;;;;;;;;;;;;10.29;100.00;101892.25;3592279;39;20082;-67
2021/06/01 04:05:03;;;;;;;4.00;2.92;;;;;;;10.30;100.00;101893.97;3590517;39;19940;-67
2021/06/01 04:07:29;;;;;;;4.60;3.25;;;;;;;10.27;100.00;101894.19;3590320;39;20052;-67
2021/06/01 04:09:56;;;;;;;6.70;2.92;;;;;;;10.23;100.00;101892.69;3592792;39;20054;-67
2021/06/01 04:12:23;;;;;;;5.38;3.28;;;;;;;10.20;100.00;101896.44;3589528;39;20574;-67
2021/06/01 04:14:49;;;;;;;6.72;3.42;;;;;;;10.22;100.00;101899.03;3590723;39;20039;-67
2021/06/01 04:17:15;;;;;;;6.88;3.20;;;;;;;10.24;100.00;101894.41;3595195;39;20069;-67
2021/06/01 04:19:41;;;;;;;4.93;3.35;;;;;;;10.28;100.00;101904.00;3593449;39;20212;-67
2021/06/01 04:22:07;;;;;;;4.50;3.30;;;;;;;10.40;100.00;101897.75;3590488;39;20055;-67
2021/06/01 04:24:33;;;;;;;5.53;3.53;;;;;;;10.37;100.00;101899.81;3593870;39;20048;-66
2021/06/01 04:27:01;;;;;;;7.45;4.22;;;;;;;10.61;100.00;101899.88;3591587;39;20431;-67
2021/06/01 04:29:28;;;;;;;4.03;3.33;;;;;;;10.63;100.00;101892.53;3591042;39;20045;-67
2021/06/01 04:31:54;;;;;;;4.60;3.38;;;;;;;10.66;100.00;101895.03;3592110;39;20039;-67
2021/06/01 04:34:20;;;;;;;4.95;3.25;;;;;;;10.75;100.00;101888.97;3593697;39;20411;-67
2021/06/01 04:36:46;;;;;;;4.28;3.15;;;;;;;10.81;100.00;101895.75;3592863;39;20051;-66
2021/06/01 04:39:12;;;;;;;4.72;2.97;;;;;;;10.95;100.00;101890.19;3591818;39;20548;-64
2021/06/01 04:41:38;;;;;;;6.10;3.40;;;;;;;11.21;100.00;101885.56;3589731;39;20516;-67
2021/06/01 04:44:06;;;;;;;4.53;3.20;;;;;;;11.41;100.00;101888.59;3597318;39;20059;-67
2021/06/01 04:46:33;;;;;;;6.63;3.42;;;;;;;11.57;100.00;101885.56;3591899;39;20028;-67
2021/06/01 04:48:59;;;;;;;5.57;3.28;;;;;;;12.32;100.00;101894.22;3668246;22;20638;-66
2021/06/01 04:51:25;;;;;;;8.10;3.70;;;;;;;13.36;100.00;101886.72;3589776;39;20052;-67
2021/06/01 04:53:53;;;;;;;3.65;2.60;;;;;;;15.36;100.00;101879.91;3589709;39;20173;-66
2021/06/01 04:56:19;;;;;;;5.38;3.05;;;;;;;15.34;100.00;101873.78;3588514;39;20081;-66
2021/06/01 04:58:45;;;;;;;4.90;2.95;;;;;;;15.87;99.07;101877.91;3587377;39;20047;-66
2021/06/01 05:01:12;;;;;;;7.35;3.10;;;;;;;17.28;85.32;101880.53;3589162;39;20367;-66
2021/06/01 05:03:39;;;;;;;5.47;2.80;;;;;;;16.85;81.63;101885.66;3590839;39;20519;-66
2021/06/01 05:06:06;;;;;;;5.97;3.00;;;;;;;15.73;90.56;101881.88;3588462;39;20080;-66
2021/06/01 05:08:32;;;;;;;3.88;2.92;;;;;;;14.86;100.00;101885.41;3591584;39;20048;-66
2021/06/01 05:10:58;;;;;;;5.45;3.10;;;;;;;14.36;100.00;101884.34;3590415;39;20151;-66
2021/06/01 05:13:24;;;;;;;4.28;2.72;;;;;;;14.05;100.00;101882.66;3591923;39;20039;-66
2021/06/01 05:15:52;;;;;;;3.10;2.80;;;;;;;13.62;100.00;101877.25;3589592;39;20516;-67
2021/06/01 05:18:19;;;;;;;4.25;2.97;;;;;;;13.09;100.00;101880.75;3592635;39;20051;-66
2021/06/01 05:20:46;;;;;;;6.15;3.40;;;;;;;13.06;100.00;101882.81;3590177;39;20055;-66
2021/06/01 05:23:12;;;;;;;3.72;2.70;;;;;;;13.14;100.00;101877.66;3592244;39;20055;-66
2021/06/01 05:25:39;;;;;;;6.32;2.85;;;;;;;12.95;100.00;101884.56;3592149;39;20036;-66
2021/06/01 05:28:05;;;;;;;4.55;2.85;;;;;;;13.07;100.00;101882.72;3591220;39;20120;-66
2021/06/01 05:30:35;;;;;;;4.05;2.80;;;;;;;13.12;100.00;101885.88;3588462;39;20085;-66
2021/06/01 05:33:17;;;;;;;3.35;2.30;;;;;;;13.04;100.00;101880.25;3589204;39;20236;-66
2021/06/01 05:35:51;;;;;;;5.00;2.70;;;;;;;13.35;100.00;101876.88;3591180;39;20032;-67
2021/06/01 05:38:17;;;;;;;6.75;2.60;;;;;;;13.48;100.00;101878.41;3588723;39;20051;-67
2021/06/01 05:40:43;;;;;;;3.95;2.80;;;;;;;13.40;100.00;101875.50;3589167;39;20048;-67
2021/06/01 05:43:09;;;;;;;4.10;2.50;;;;;;;13.48;100.00;101881.09;3598430;39;20047;-67
2021/06/01 05:45:37;;;;;;;5.78;2.88;;;;;;;13.39;100.00;101876.47;3601192;39;20035;-67
2021/06/01 05:48:03;;;;;;;6.68;2.75;;;;;;;13.69;100.00;101879.41;3599509;39;20043;-66
2021/06/01 05:50:29;;;;;;;5.28;2.50;;;;;;;13.85;100.00;101877.09;3599866;39;20390;-62
2021/06/01 05:52:58;;;;;;;5.55;2.65;;;;;;;14.01;100.00;101877.47;3599622;39;20051;-61
2021/06/01 05:55:24;;;;;;;4.05;2.55;;;;;;;14.07;100.00;101877.94;3598496;39;20124;-66
2021/06/01 05:57:50;;;;;;;4.38;2.45;;;;;;;14.20;100.00;101875.88;3598578;39;20104;-67
2021/06/01 06:00:17;;;;;;;4.68;2.67;;;;;;;14.36;100.00;101878.09;3600026;39;20051;-66
2021/06/01 06:02:43;;;;;;;4.72;2.40;;;;;;;14.49;100.00;101877.88;3600824;39;20050;-66
2021/06/01 06:05:11;;;;;;;5.68;2.63;;;;;;;14.52;100.00;101877.59;3600249;39;20055;-66
2021/06/01 06:07:37;;;;;;;6.30;2.67;;;;;;;14.79;100.00;101870.72;3600469;39;20051;-66
2021/06/01 06:10:05;;;;;;;4.82;2.80;;;;;;;14.95;100.00;101864.75;3599992;39;20462;-67
2021/06/01 06:12:32;;;;;;;3.33;2.45;;;;;;;15.20;100.00;101868.78;3599318;39;20044;-66
2021/06/01 06:14:58;;;;;;;4.80;2.65;;;;;;;15.60;100.00;101865.03;3600841;39;20052;-66
2021/06/01 06:17:29;;;;;;;4.22;2.28;;;;;;;15.67;100.00;101866.19;3599471;39;20337;-66
2021/06/01 06:19:56;;;;;;;3.38;2.47;;;;;;;15.69;100.00;101864.16;3600335;39;20046;-66
2021/06/01 06:22:22;;;;;;;3.22;2.20;;;;;;;16.13;100.00;101860.13;3599318;39;20074;-67
2021/06/01 06:24:48;;;;;;;4.90;2.45;;;;;;;16.37;100.00;101873.16;3600381;39;20052;-67
2021/06/01 06:27:15;;;;;;;4.50;2.30;;;;;;;16.49;99.92;101866.53;3599664;39;20422;-66
2021/06/01 06:29:41;;;;;;;6.60;2.50;;;;;;;16.85;99.90;101866.63;3599693;39;20056;-66
2021/06/01 06:34:58;;;;;;;4.82;2.50;;;;;;;17.17;97.64;101873.47;3608716;22;20040;-66
2021/06/01 06:37:24;;;;;;;5.50;2.50;;;;;;;17.25;95.45;101867.22;3600790;39;20066;-66
2021/06/01 06:39:50;;;;;;;4.75;2.42;;;;;;;17.34;97.46;101869.88;3600735;39;20048;-66
2021/06/01 06:42:17;;;;;;;4.53;2.30;;;;;;;17.47;97.31;101874.91;3599268;39;20061;-66
2021/06/01 06:44:47;;;;;;;4.53;2.33;;;;;;;17.57;89.74;101871.25;3600383;39;20047;-66
2021/06/01 06:47:24;;;;;;;4.57;2.30;;;;;;;17.82;95.80;101864.97;3599963;39;20059;-67
2021/06/01 06:49:51;;;;;;;8.05;2.70;;;;;;;17.76;97.01;101871.06;3599932;39;20540;-66
2021/06/01 06:52:17;;;;;;;4.47;2.60;;;;;;;17.99;88.87;101865.13;3600879;39;20055;-66
2021/06/01 06:54:43;;;;;;;4.10;2.40;;;;;;;18.06;94.80;101863.47;3601843;39;20044;-66
2021/06/01 06:57:09;;;;;;;5.30;2.45;;;;;;;18.06;91.86;101855.28;3601222;39;20031;-66
2021/06/01 06:59:36;;;;;;;4.07;2.58;;;;;;;18.27;98.64;101865.81;3600080;39;20038;-66
2021/06/01 07:02:03;;;;;;;3.53;2.33;;;;;;;18.51;89.73;101858.78;3599946;39;20043;-66
2021/06/01 07:04:30;;;;;;;4.40;2.50;;;;;;;18.34;85.56;101857.81;3601372;39;20093;-66
2021/06/01 07:06:56;;;;;;;6.22;2.42;;;;;;;18.33;79.87;101856.97;3601301;39;20140;-65
2021/06/01 07:09:22;;;;;;;7.47;2.63;;;;;;;18.45;80.87;101854.81;3601547;39;20071;-66
2021/06/01 07:11:48;;;;;;;4.28;2.75;;;;;;;18.80;85.05;101850.19;3600163;39;20051;-67
2021/06/01 07:14:30;;;;;;;5.40;2.58;;;;;;;19.16;82.17;101841.75;3602816;39;20041;-67
2021/06/01 07:16:58;;;;;;;4.72;2.70;;;;;;;19.15;84.55;101841.91;3602837;39;20048;-67
2021/06/01 07:19:23;;;;;;;4.28;2.10;;;;;;;19.18;82.53;101838.84;3602819;39;20052;-69
2021/06/01 07:21:49;;;;;;;3.25;2.25;;;;;;;19.22;83.94;101840.22;3602912;39;20276;-67
2021/06/01 07:24:15;;;;;;;4.28;2.40;;;;;;;19.53;74.28;101837.66;3601814;39;20028;-67
2021/06/01 07:26:41;;;;;;;3.03;2.20;;;;;;;19.79;76.88;101842.13;3603767;39;20156;-67
2021/06/01 07:29:07;;;;;;;5.72;2.30;;;;;;;19.92;71.35;101836.09;3602979;39;20467;-67
2021/06/01 07:31:33;;;;;;;4.68;2.28;;;;;;;20.06;68.85;101837.25;3603040;39;20077;-66
2021/06/01 07:34:01;;;;;;;5.28;2.40;;;;;;;20.11;70.46;101832.09;3602425;39;20036;-66
2021/06/01 07:39:18;;;;;;;4.80;2.10;;;;;;;20.23;65.42;101833.47;3610296;22;20321;-67
2021/06/01 07:41:44;;;;;;;2.50;1.95;;;;;;;20.50;64.59;101828.56;3612636;39;20043;-68
2021/06/01 07:44:10;;;;;;;3.38;2.28;;;;;;;20.61;66.80;101825.44;3612321;39;20059;-68
2021/06/01 07:46:36;;;;;;;6.28;2.10;;;;;;;20.67;62.83;101829.38;3612690;39;20305;-68
2021/06/01 07:49:03;;;;;;;4.75;2.17;;;;;;;20.77;62.96;101823.66;3613169;39;20047;-68
2021/06/01 07:51:30;;;;;;;4.00;1.88;;;;;;;21.18;59.81;101826.94;3612657;39;20051;-68
2021/06/01 07:53:58;;;;;;;3.13;2.17;;;;;;;21.34;55.82;101825.97;3612935;39;20431;-68
2021/06/01 07:56:24;;;;;;;3.00;2.13;;;;;;;21.61;50.96;101821.00;3611536;39;20039;-68
2021/06/01 07:58:50;;;;;;;2.60;1.88;;;;;;;21.56;50.75;101826.16;3612266;39;20057;-67
2021/06/01 08:01:16;;;;;;;3.03;1.70;;;;;;;21.52;56.66;101827.56;3611771;39;20063;-68
2021/06/01 08:03:42;;;;;;;3.45;1.95;;;;;;;21.44;52.47;101825.72;3611001;39;20040;-67
2021/06/01 08:06:10;;;;;;;3.70;1.80;;;;;;;21.30;49.18;101821.94;3612473;39;20040;-68
2021/06/01 08:08:36;;;;;;;3.53;2.08;;;;;;;21.78;51.44;101812.63;3612963;39;20384;-68
2021/06/01 08:11:02;;;;;;;3.65;1.60;;;;;;;22.05;48.53;101817.44;3611670;39;20046;-67
2021/06/01 08:13:28;;;;;;;3.35;2.42;;;;;;;21.96;47.78;101818.56;3611472;39;20090;-68
2021/06/01 08:15:54;;;;;;;4.60;2.25;;;;;;;21.98;43.90;101810.16;3611503;39;20035;-67
2021/06/01 08:18:22;;;;;;;3.30;2.05;;;;;;;21.88;46.28;101813.19;3612220;39;20050;-66
2021/06/01 08:20:56;;;;;;;3.78;2.47;;;;;;;22.23;46.72;101813.44;3611430;39;20401;-67
2021/06/01 08:23:24;;;;;;;5.28;2.75;;;;;;;22.54;49.22;101817.88;3611717;39;20044;-68
2021/06/01 08:25:50;;;;;;;4.35;2.55;;;;;;;22.42;48.35;101808.47;3612032;39;20048;-67
2021/06/01 08:28:16;;;;;;;5.30;2.38;;;;;;;22.38;45.29;101817.06;3611420;39;20133;-66
2021/06/01 08:30:42;;;;;;;7.03;2.40;;;;;;;22.61;47.53;101813.34;3612116;39;20151;-67
2021/06/01 08:33:08;;;;;;;7.65;2.65;;;;;;;22.78;49.17;101810.38;3610236;39;20143;-67
2021/06/01 08:35:34;;;;;;;9.13;3.10;;;;;;;22.78;45.48;101804.91;3611025;39;20047;-67
2021/06/01 08:38:00;;;;;;;4.28;2.58;;;;;;;23.13;45.10;101813.28;3611603;39;20387;-68
2021/06/01 08:40:27;;;;;;;4.13;2.38;;;;;;;23.14;44.92;101799.34;3611881;39;20043;-68
2021/06/01 08:42:53;;;;;;;2.95;2.10;;;;;;;23.17;45.84;101804.44;3610382;39;20038;-68
2021/06/01 08:45:20;;;;;;;3.25;2.35;;;;;;;23.22;41.77;101801.13;3611359;39;20043;-68
2021/06/01 08:47:47;;;;;;;4.40;2.47;;;;;;;23.60;40.96;101793.41;3612809;39;20055;-68
2021/06/01 08:50:14;;;;;;;4.82;2.10;;;;;;;23.40;38.27;101793.25;3611636;39;20123;-69
2021/06/01 08:52:42;;;;;;;3.28;2.50;;;;;;;23.61;37.04;101794.25;3612341;39;20055;-69
2021/06/01 08:55:11;;;;;;;4.00;2.50;;;;;;;23.55;38.39;101795.06;3611975;39;20099;-69
2021/06/01 08:57:38;;;;;;;;;;;;;;;23.57;41.26;101798.44;3612798;39;20063;-68
2021/06/01 09:00:06;;;;;;;4.28;2.30;;;;;;;23.58;39.07;101787.25;3611521;39;19931;-69
2021/06/01 09:02:32;;;;;;;5.25;2.40;;;;;;;23.59;39.40;101782.63;3612026;39;20058;-68
2021/06/01 09:05:02;;;;;;;2.83;2.10;;;;;;;23.43;36.50;101783.78;3612322;39;20095;-68
2021/06/01 09:07:35;;;;;;;3.47;2.30;;;;;;;23.65;38.54;101783.72;3612251;39;20039;-68
2021/06/01 09:10:25;;;;;;;4.30;1.70;;;;;;;23.98;35.13;101781.19;3611777;39;20128;-68
2021/06/01 09:13:06;;;;;;;5.07;2.40;;;;;;;24.14;33.83;101771.78;3612124;39;20042;-69
2021/06/01 09:15:46;;;;;;;4.47;2.00;;;;;;;23.86;34.23;101772.66;3612613;39;20456;-69
2021/06/01 09:21:09;;;;;;;4.22;2.13;;;;;;;23.97;34.15;101776.78;3611452;39;20124;-68
2021/06/01 09:23:48;;;;;;;4.80;1.83;;;;;;;23.99;33.87;101769.16;3611919;39;20054;-69
2021/06/01 09:26:45;;;;;;;8.48;2.10;;;;;;;24.00;34.45;101776.38;3611696;39;20066;-69
2021/06/01 09:29:13;;;;;;;5.35;2.00;;;;;;;24.18;31.90;101777.72;3612092;39;20035;-69
2021/06/01 09:31:39;;;;;;;4.22;1.85;;;;;;;23.99;32.44;101771.91;3611049;39;20055;-68
2021/06/01 09:34:06;;;;;;;2.15;1.70;;;;;;;24.33;32.38;101766.56;3610822;39;20035;-69
2021/06/01 09:39:07;;;;;;;5.45;1.73;;;;;;;25.14;33.30;101766.56;3635237;22;20040;-69
2021/06/01 09:41:33;;;;;;;6.60;1.63;;;;;;;25.40;32.03;101750.25;3601104;39;20044;-69
2021/06/01 09:44:01;;;;;;;3.30;1.40;;;;;;;24.58;33.92;101761.34;3601240;39;20046;-68
2021/06/01 09:46:29;;;;;;;2.45;1.55;;;;;;;24.78;30.84;101754.03;3601152;39;20084;-69
2021/06/01 09:48:57;;;;;;;2.63;1.30;;;;;;;24.50;31.04;101759.66;3601096;39;20058;-69
2021/06/01 09:51:35;;;;;;;1.90;1.48;;;;;;;25.08;34.57;101759.13;3601674;39;20071;-69
2021/06/01 09:54:30;;;;;;;3.88;1.60;;;;;;;25.04;29.41;101757.03;3599985;39;20584;-67
2021/06/01 09:56:57;;;;;;;2.38;1.20;;;;;;;25.29;31.10;101762.75;3600976;39;20406;-68
2021/06/01 09:59:23;;;;;;;1.77;1.08;;;;;;;25.35;28.03;101750.91;3599351;39;20123;-67
2021/06/01 10:01:50;;;;;;;2.42;0.90;;;;;;;25.40;26.60;101753.88;3599903;39;20044;-68
2021/06/01 10:04:23;;;;;;;1.85;1.17;;;;;;;25.79;27.27;101745.75;3597041;39;20060;-67
2021/06/01 10:06:49;;;;;;;1.85;1.00;;;;;;;25.83;27.61;101741.50;3597028;39;20137;-67
2021/06/01 10:09:15;;;;;;;1.50;1.20;;;;;;;25.42;28.30;101748.97;3598046;39;20039;-68
2021/06/01 10:11:52;;;;;;;2.17;1.10;;;;;;;25.57;24.61;101751.50;3597740;39;20152;-68
2021/06/01 10:14:18;;;;;;;2.45;1.17;;;;;;;25.30;26.52;101745.16;3599588;39;20055;-67
2021/06/01 10:16:45;;;;;;;3.67;1.33;;;;;;;25.36;30.26;101747.09;3596490;39;20046;-68
2021/06/01 10:19:13;;;;;;;2.63;1.20;;;;;;;25.62;29.64;101739.84;3596873;39;20327;-68
2021/06/01 10:21:39;;;;;;;2.80;1.30;;;;;;;26.05;28.93;101728.28;3598461;39;20144;-68
2021/06/01 10:24:09;;;;;;;3.35;1.15;;;;;;;26.38;27.35;101738.31;3596993;39;20041;-69
2021/06/01 10:26:35;;;;;;;2.53;1.40;;;;;;;26.17;28.21;101729.28;3596360;39;20426;-69
2021/06/01 10:29:01;;;;;;;2.22;1.50;;;;;;;25.93;29.47;101728.09;3600927;39;20049;-69
2021/06/01 10:31:27;;;;;;;1.83;1.33;;;;;;;25.98;29.33;101728.28;3598159;39;20399;-69
2021/06/01 10:33:58;;;;;;;2.38;1.20;;;;;;;25.87;26.65;101724.28;3598765;39;20025;-69
2021/06/01 10:44:51;;;;;;;2.83;1.50;;;;;;;26.27;29.16;101720.56;3597108;39;20432;-69
2021/06/01 10:50:32;;;;;;;3.42;1.90;;;;;;;26.45;29.50;101717.06;3600138;39;20047;-69
2021/06/01 10:53:13;;;;;;;1.80;1.40;;;;;;;26.42;29.23;101711.97;3599377;39;20063;-69
2021/06/01 10:56:03;;;;;;;4.10;1.40;;;;;;;26.50;26.21;101706.22;3600525;39;20040;-68
2021/06/01 10:58:55;;;;;;;3.13;1.30;;;;;;;26.27;29.79;101711.44;3600799;39;20076;-68
2021/06/01 11:04:10;;;;;;;1.83;1.30;;;;;;;26.38;29.72;101708.81;3599698;39;20055;-70
2021/06/01 11:07:24;;;;;;;2.85;1.50;;;;;;;26.25;27.94;101708.91;3599745;39;20036;-69
2021/06/01 11:09:51;;;;;;;2.45;1.73;;;;;;;26.61;29.23;101704.63;3599599;39;20036;-69
2021/06/01 11:12:43;;;;;;;2.35;1.50;;;;;;;26.61;28.24;101698.28;3600686;39;20398;-69
2021/06/01 11:15:30;;;;;;;3.10;1.70;;;;;;;27.15;32.63;101688.53;3601275;39;20514;-69
2021/06/01 11:18:28;;;;;;;3.03;1.80;;;;;;;26.86;28.72;101690.06;3599468;39;20048;-69
2021/06/01 11:21:22;;;;;;;3.13;1.63;;;;;;;27.28;28.04;101682.88;3598273;39;20047;-69
2021/06/01 11:24:38;;;;;;;5.63;1.55;;;;;;;26.68;30.10;101682.56;3600484;39;20064;-69
2021/06/01 11:32:53;;;;;;;1.60;1.38;;;;;;;27.35;26.08;101684.75;3600107;39;20059;-69
2021/06/01 11:35:25;;;;;;;2.75;1.60;;;;;;;27.39;31.36;101677.69;3600146;39;20043;-68
2021/06/01 11:37:58;;;;;;;21.65;3.85;;;;;;;27.64;29.13;101674.03;3598878;39;20146;-68
2021/06/01 11:40:29;;;;;;;2.55;1.65;;;;;;;27.17;26.71;101669.78;3598310;39;20043;-69
2021/06/01 11:43:08;;;;;;;36.28;5.10;;;;;;;26.92;26.97;101676.16;3599767;39;20047;-68
2021/06/01 11:45:49;;;;;;;3.20;1.65;;;;;;;27.06;28.94;101673.28;3599792;39;20054;-69
2021/06/01 11:51:14;;;;;;;2.63;1.70;;;;;;;27.02;28.19;101677.59;3580745;39;20060;-70
2021/06/01 11:53:52;;;;;;;2.75;1.52;;;;;;;27.61;26.38;101664.25;3598143;39;20048;-68
2021/06/01 11:56:43;;;;;;;1.75;1.38;;;;;;;27.57;25.04;101657.50;3599235;39;20059;-69
2021/06/01 12:02:17;;;;;;;5.82;1.35;;;;;;;27.40;25.71;101662.78;3599982;39;20389;-69
2021/06/01 12:18:39;;;;;;;2.47;1.60;;;;;;;27.75;26.48;101653.88;3601726;39;20132;-70
2021/06/01 12:21:07;;;;;;;1.85;1.45;;;;;;;27.87;25.81;101652.03;3601186;39;20087;-70
2021/06/01 12:23:35;;;;;;;2.13;1.70;;;;;;;27.74;25.08;101638.38;3599589;39;20048;-70
2021/06/01 12:26:12;;;;;;;2.30;1.65;;;;;;;28.18;25.18;101629.91;3601934;39;20044;-69
2021/06/01 12:32:05;;;;;;;2.20;1.35;;;;;;;28.13;24.58;101638.94;3632390;22;20062;-71
2021/06/01 12:34:43;;;;;;;2.60;1.80;;;;;;;28.05;25.12;101633.75;3550875;40;20065;-68
2021/06/01 12:45:49;;;;;;;1.98;1.27;;;;;;;28.97;23.93;101613.09;3551868;40;20081;-70